Maribel — LAGU6 — position and weather

sailwx.info

Track history (hours):
 
Tides and Currents Weather Stations Pressure Air Temp Water Temp Dewpoint Dewpoint Depression Visibility Wind Speed Wind Dir Waves Ship Positions

Maribel

Last reported at 2015-Mar-25 03:28 UTC. Time now 2015-Mar-28 05:20 UTC.
Position N 55°54' E 017°31'.

Length 228 m; draft 7.4 m.

Type: Tanker. MMSI: 257872000.

Date/timePositionNaut miles runAvg speedWind from/ knotsBaromVisibWave heightAir tempDewpointWater temp
2015-Mar-25 03:28N 55°54' E 017°31'6613.5
2015-Mar-24 22:33N 55°38' E 015°37'1413.5
2015-Mar-24 21:33N 55°33' E 015°14'1413.6
2015-Mar-24 20:33N 55°28' E 014°52'1313.3
2015-Mar-24 19:34N 55°19' E 014°34'1313.3
2015-Mar-24 18:33N 55°09' E 014°18'1313.5
2015-Mar-24 17:33N 55°10' E 013°55'1413.8
2015-Mar-24 16:33N 55°11' E 013°30'1313.4
2015-Mar-24 15:33N 55°12' E 013°07'1313.3
2015-Mar-24 14:33N 55°16' E 012°45'1110.9
2015-Mar-24 13:33N 55°26' E 012°40'1010.2
2015-Mar-24 12:33N 55°37' E 012°42'9 9.0
2015-Mar-24 11:33N 55°44' E 012°50'7 7.0
2015-Mar-24 10:34N 55°50' E 012°42'1413.7
2015-Mar-24 09:33N 56°04' E 012°38'1313.1
2015-Mar-24 08:33N 56°12' E 012°19'1312.9
2015-Mar-24 07:33N 56°21' E 012°03'1413.5
2015-Mar-24 06:33N 56°34' E 011°57'1413.7
2015-Mar-24 05:34N 56°47' E 011°51'1313.3
2015-Mar-24 04:34N 56°60' E 011°43'1312.9
2015-Mar-24 03:33N 57°12' E 011°35'1313.1
2015-Mar-24 02:33N 57°24' E 011°27'1312.8
2015-Mar-24 01:33N 57°34' E 011°12'1313.0
2015-Mar-24 00:33N 57°42' E 010°52'6 5.9
2015-Mar-23 23:34N 57°47' E 010°46'1312.9
2015-Mar-23 22:34N 57°51' E 010°23'1513.5
2015-Mar-23 21:26N 57°51' E 009°54'26813.2
2015-Mar-23 01:08N 54°20' E 004°59'813.8
2015-Mar-23 00:33N 54°13' E 004°53'1413.5
2015-Mar-22 23:31N 53°60' E 004°43'6013.5
2015-Mar-22 19:05N 53°16' E 003°35'814.3
2015-Mar-22 18:31N 53°09' E 003°29'1414.6
2015-Mar-22 17:33N 52°55' E 003°21'1515.0
2015-Mar-22 16:32N 52°42' E 003°09'1515.3
2015-Mar-22 15:33N 52°29' E 002°57'1515.1
2015-Mar-22 14:34N 52°15' E 002°45'1413.6
2015-Mar-22 13:33N 52°02' E 002°41'2712.4
2015-Mar-22 11:24N 52°21' E 003°12'1414.7
2015-Mar-22 10:29N 52°28' E 003°31'1314.3
2015-Mar-22 09:33N 52°31' E 003°53'1413.7
2015-Mar-22 08:33N 52°31' E 004°15'1212.3
2015-Mar-22 07:34N 52°28' E 004°35'3 3.0
2015-Mar-22 06:33N 52°28' E 004°39'4 4.1
2015-Mar-22 05:33N 52°25' E 004°45'1 0.5
2015-Mar-22 04:33N 52°25' E 004°45'0 0.0
2015-Mar-22 03:32N 52°25' E 004°45'0 0.0
2015-Mar-22 02:32N 52°25' E 004°45'0 0.0
2015-Mar-22 01:31N 52°25' E 004°45'0 0.0
2015-Mar-22 00:25N 52°25' E 004°45'0 0.0
2015-Mar-21 23:30N 52°25' E 004°45'0 0.0
2015-Mar-21 22:33N 52°25' E 004°45'0 0.0
2015-Mar-21 21:30N 52°25' E 004°45'0 0.0
2015-Mar-21 20:32N 52°25' E 004°45'0 0.0
2015-Mar-21 19:32N 52°25' E 004°45'0 0.0
2015-Mar-21 18:31N 52°25' E 004°45'0 0.0
2015-Mar-21 17:31N 52°25' E 004°45'0 0.0
2015-Mar-21 16:30N 52°25' E 004°45'0 0.0
2015-Mar-21 15:30N 52°25' E 004°45'0 0.0
2015-Mar-21 14:29N 52°25' E 004°45'0 0.0
2015-Mar-21 13:32N 52°25' E 004°45'0 0.0
2015-Mar-21 12:32N 52°25' E 004°45'0 0.0
2015-Mar-21 11:25N 52°25' E 004°45'0 0.0
2015-Mar-21 10:25N 52°25' E 004°45'0 0.0
2015-Mar-21 09:33N 52°25' E 004°45'0 0.0
2015-Mar-21 08:33N 52°25' E 004°45'0 0.0
2015-Mar-21 07:27N 52°25' E 004°45'0 0.0
2015-Mar-21 06:32N 52°25' E 004°45'0 0.0
2015-Mar-21 05:32N 52°25' E 004°45'0 0.0
2015-Mar-21 04:31N 52°25' E 004°45'0 0.0
2015-Mar-21 03:25N 52°25' E 004°45'0 0.0
2015-Mar-21 02:33N 52°25' E 004°45'0 0.0
2015-Mar-21 01:33N 52°25' E 004°45'0 0.0
2015-Mar-21 00:32N 52°25' E 004°45'0 0.0
2015-Mar-20 23:29N 52°25' E 004°45'0 0.0
2015-Mar-20 22:32N 52°25' E 004°45'0 0.0
2015-Mar-20 21:31N 52°25' E 004°45'0 0.0
2015-Mar-20 20:31N 52°25' E 004°45'0 0.0
2015-Mar-20 19:18N 52°25' E 004°45'0 0.0
2015-Mar-20 18:33N 52°25' E 004°45'0 0.0
2015-Mar-20 17:32N 52°25' E 004°45'0 0.0
2015-Mar-20 16:26N 52°25' E 004°45'0 0.0
2015-Mar-20 15:32N 52°25' E 004°45'0 0.0
2015-Mar-20 14:31N 52°25' E 004°45'0 0.0
2015-Mar-20 13:28N 52°25' E 004°45'0 0.0
2015-Mar-20 12:33N 52°25' E 004°45'0 0.0
2015-Mar-20 11:15N 52°25' E 004°45'0 0.0
2015-Mar-20 10:29N 52°25' E 004°45'0 0.0
2015-Mar-20 09:32N 52°25' E 004°45'0 0.0
2015-Mar-20 08:25N 52°25' E 004°45'0 0.0
2015-Mar-20 07:25N 52°25' E 004°45'0 0.0
2015-Mar-20 06:31N 52°25' E 004°45'0 0.0
2015-Mar-20 05:30N 52°25' E 004°45'0 0.0
2015-Mar-20 04:30N 52°25' E 004°45'0 0.0
2015-Mar-20 03:29N 52°25' E 004°45'0 0.0
2015-Mar-20 02:33N 52°25' E 004°45'0 0.0
2015-Mar-20 01:31N 52°25' E 004°45'0 0.0
2015-Mar-20 00:19N 52°25' E 004°45'0 0.0
2015-Mar-19 23:31N 52°25' E 004°45'0 0.0
2015-Mar-19 22:33N 52°25' E 004°45'0 0.0
2015-Mar-19 21:33N 52°25' E 004°45'0 0.0
2015-Mar-19 20:29N 52°25' E 004°45'0 0.0
2015-Mar-19 19:33N 52°25' E 004°45'1 1.1
2015-Mar-19 18:33N 52°26' E 004°44'5 5.1
2015-Mar-19 17:34N 52°28' E 004°37'2 1.8
2015-Mar-19 16:33N 52°28' E 004°34'6 6.1
2015-Mar-19 15:33N 52°29' E 004°24'6 5.7
2015-Mar-19 14:33N 52°29' E 004°15'8 8.4
2015-Mar-19 13:33N 52°27' E 004°01'0 0.0
2015-Mar-19 12:25N 52°26' E 004°01'0 0.1
2015-Mar-19 11:28N 52°26' E 004°01'0 0.0
2015-Mar-19 10:28N 52°26' E 004°01'0 0.0
2015-Mar-19 09:27N 52°26' E 004°01'0 0.0
2015-Mar-19 08:33N 52°26' E 004°01'0 0.0
2015-Mar-19 07:29N 52°26' E 004°01'0 0.0
2015-Mar-19 06:29N 52°26' E 004°01'0 0.0
2015-Mar-19 05:31N 52°26' E 004°01'0 0.2
2015-Mar-19 04:28N 52°27' E 004°01'0 0.1
2015-Mar-19 03:31N 52°27' E 004°01'0 0.0
2015-Mar-19 02:33N 52°27' E 004°01'0 0.0
2015-Mar-19 01:33N 52°27' E 004°01'0 0.1
2015-Mar-19 00:32N 52°27' E 004°01'0 0.2
2015-Mar-18 23:29N 52°26' E 004°01'0 0.1
2015-Mar-18 22:31N 52°26' E 004°01'0 0.0
2015-Mar-18 21:13N 52°26' E 004°01'0 0.0
2015-Mar-18 20:12N 52°26' E 004°01'0 0.0
2015-Mar-18 19:33N 52°26' E 004°01'0 0.0
2015-Mar-18 18:33N 52°26' E 004°01'0 0.0
2015-Mar-18 16:29N 52°26' E 004°01'0 0.3
2015-Mar-18 15:31N 52°27' E 004°01'0 0.0
2015-Mar-18 14:28N 52°27' E 004°01'0 0.0
2015-Mar-18 13:31N 52°27' E 004°01'0 0.0
2015-Mar-18 12:33N 52°27' E 004°01'0 0.3
2015-Mar-18 11:27N 52°26' E 004°01'0 0.0
2015-Mar-18 10:26N 52°26' E 004°01'0 0.0
2015-Mar-18 09:26N 52°26' E 004°01'0 0.0
2015-Mar-18 08:28N 52°26' E 004°01'0 0.0
2015-Mar-18 07:31N 52°26' E 004°01'0 0.0
2015-Mar-18 06:31N 52°26' E 004°01'0 0.0
2015-Mar-18 05:32N 52°26' E 004°01'0 0.1
2015-Mar-18 04:10N 52°26' E 004°01'0 0.3
2015-Mar-18 03:31N 52°27' E 004°01'0 0.1
2015-Mar-18 02:31N 52°27' E 004°01'0 0.0
2015-Mar-18 01:27N 52°27' E 004°01'0 0.0
2015-Mar-18 00:21N 52°27' E 004°01'0 0.0
2015-Mar-17 23:26N 52°27' E 004°01'0 0.2
2015-Mar-17 22:32N 52°26' E 004°01'0 0.1
2015-Mar-17 21:32N 52°26' E 004°01'0 0.0
2015-Mar-17 20:28N 52°26' E 004°01'0 0.0
2015-Mar-17 19:19N 52°26' E 004°01'0 0.0
2015-Mar-17 18:21N 52°26' E 004°01'0 0.0
2015-Mar-17 17:24N 52°26' E 004°01'0 0.1
2015-Mar-17 16:26N 52°26' E 004°01'0 0.2
2015-Mar-17 15:32N 52°27' E 004°01'0 0.1
2015-Mar-17 14:28N 52°27' E 004°01'0 0.0
2015-Mar-17 13:31N 52°27' E 004°01'0 0.0
2015-Mar-17 12:28N 52°27' E 004°01'0 0.0
2015-Mar-17 11:24N 52°27' E 004°01'0 0.2
2015-Mar-17 10:15N 52°27' E 004°01'0 0.2
2015-Mar-17 09:32N 52°26' E 004°01'0 0.0
2015-Mar-17 08:26N 52°26' E 004°01'0 0.0
2015-Mar-17 07:22N 52°26' E 004°01'0 0.0
2015-Mar-17 06:28N 52°26' E 004°01'0 0.0
2015-Mar-17 05:25N 52°26' E 004°01'0 0.1
2015-Mar-17 04:33N 52°26' E 004°01'0 0.1
2015-Mar-17 03:33N 52°27' E 004°01'0 0.1
2015-Mar-17 02:32N 52°27' E 004°01'0 0.0
2015-Mar-17 01:23N 52°27' E 004°01'0 0.0
2015-Mar-17 00:25N 52°27' E 004°01'0 0.0
2015-Mar-16 23:31N 52°27' E 004°01'0 0.0
2015-Mar-16 22:25N 52°27' E 004°01'0 0.2
2015-Mar-16 21:27N 52°27' E 004°01'0 0.1
2015-Mar-16 20:30N 52°26' E 004°01'0 0.0
2015-Mar-16 19:32N 52°26' E 004°01'0 0.0
2015-Mar-16 18:32N 52°26' E 004°01'0 0.0
2015-Mar-16 17:31N 52°26' E 004°01'0 0.0
2015-Mar-16 16:31N 52°26' E 004°01'0 0.1
2015-Mar-16 15:18N 52°26' E 004°01'0 0.2
2015-Mar-16 14:30N 52°27' E 004°01'0 0.1
2015-Mar-16 13:30N 52°27' E 004°01'0 0.0
2015-Mar-16 12:32N 52°27' E 004°01'0 0.0
2015-Mar-16 11:29N 52°27' E 004°01'0 0.0
2015-Mar-16 10:28N 52°27' E 004°01'0 0.1
2015-Mar-16 09:28N 52°27' E 004°01'0 0.2
2015-Mar-16 08:34N 52°27' E 004°01'0 0.1
2015-Mar-16 07:30N 52°26' E 004°01'0 0.1
2015-Mar-16 06:33N 52°26' E 004°01'0 0.0
2015-Mar-16 05:17N 52°26' E 004°01'0 0.0
2015-Mar-16 04:23N 52°26' E 004°01'0 0.1
2015-Mar-16 02:31N 52°27' E 004°01'0 0.1
2015-Mar-16 01:24N 52°27' E 004°01'0 0.0
2015-Mar-16 00:33N 52°27' E 004°01'0 0.0
2015-Mar-15 23:33N 52°27' E 004°01'0 0.0
2015-Mar-15 22:08N 52°27' E 004°01'0 0.0
2015-Mar-15 21:23N 52°27' E 004°01'0 0.2
2015-Mar-15 20:09N 52°27' E 004°01'0 0.1
2015-Mar-15 19:28N 52°26' E 004°01'0 0.1
2015-Mar-15 18:34N 52°26' E 004°01'0 0.0
2015-Mar-15 17:33N 52°26' E 004°01'0 0.0
2015-Mar-15 16:33N 52°26' E 004°01'0 0.0
2015-Mar-15 14:14N 52°26' E 004°01'0 0.3
2015-Mar-15 13:31N 52°27' E 004°01'0 0.0
2015-Mar-15 11:15N 52°27' E 004°01'0 0.1
2015-Mar-15 10:30N 52°27' E 004°01'0 0.0
2015-Mar-15 09:33N 52°27' E 004°01'0 0.1
2015-Mar-15 08:32N 52°27' E 004°01'0 0.2
2015-Mar-15 07:32N 52°26' E 004°01'0 0.1
2015-Mar-15 06:28N 52°26' E 004°01'0 0.0
2015-Mar-15 05:22N 52°26' E 004°01'0 0.0
2015-Mar-15 04:33N 52°26' E 004°01'  
Track history (hours):
 
Tides and Currents Weather Stations Pressure Air Temp Water Temp Dewpoint Dewpoint Depression Visibility Wind Speed Wind Dir Waves Ship Positions

Maribel

Last reported at 2015-Mar-25 03:28 UTC. Time now 2015-Mar-28 05:20 UTC.
Position N 55°54' E 017°31'.

Length 228 m; draft 7.4 m.

Type: Tanker. MMSI: 257872000.

Date/timePositionNaut miles runAvg speedWind from/ knotsBaromVisibWave heightAir tempDewpointWater temp
2015-Mar-25 03:28N 55°54' E 017°31'6613.5
2015-Mar-24 22:33N 55°38' E 015°37'1413.5
2015-Mar-24 21:33N 55°33' E 015°14'1413.6
2015-Mar-24 20:33N 55°28' E 014°52'1313.3
2015-Mar-24 19:34N 55°19' E 014°34'1313.3
2015-Mar-24 18:33N 55°09' E 014°18'1313.5
2015-Mar-24 17:33N 55°10' E 013°55'1413.8
2015-Mar-24 16:33N 55°11' E 013°30'1313.4
2015-Mar-24 15:33N 55°12' E 013°07'1313.3
2015-Mar-24 14:33N 55°16' E 012°45'1110.9
2015-Mar-24 13:33N 55°26' E 012°40'1010.2
2015-Mar-24 12:33N 55°37' E 012°42'9 9.0
2015-Mar-24 11:33N 55°44' E 012°50'7 7.0
2015-Mar-24 10:34N 55°50' E 012°42'1413.7
2015-Mar-24 09:33N 56°04' E 012°38'1313.1
2015-Mar-24 08:33N 56°12' E 012°19'1312.9
2015-Mar-24 07:33N 56°21' E 012°03'1413.5
2015-Mar-24 06:33N 56°34' E 011°57'1413.7
2015-Mar-24 05:34N 56°47' E 011°51'1313.3
2015-Mar-24 04:34N 56°60' E 011°43'1312.9
2015-Mar-24 03:33N 57°12' E 011°35'1313.1
2015-Mar-24 02:33N 57°24' E 011°27'1312.8
2015-Mar-24 01:33N 57°34' E 011°12'1313.0
2015-Mar-24 00:33N 57°42' E 010°52'6 5.9
2015-Mar-23 23:34N 57°47' E 010°46'1312.9
2015-Mar-23 22:34N 57°51' E 010°23'1513.5
2015-Mar-23 21:26N 57°51' E 009°54'26813.2
2015-Mar-23 01:08N 54°20' E 004°59'813.8
2015-Mar-23 00:33N 54°13' E 004°53'1413.5
2015-Mar-22 23:31N 53°60' E 004°43'6013.5
2015-Mar-22 19:05N 53°16' E 003°35'814.3
2015-Mar-22 18:31N 53°09' E 003°29'1414.6
2015-Mar-22 17:33N 52°55' E 003°21'1515.0
2015-Mar-22 16:32N 52°42' E 003°09'1515.3
2015-Mar-22 15:33N 52°29' E 002°57'1515.1
2015-Mar-22 14:34N 52°15' E 002°45'1413.6
2015-Mar-22 13:33N 52°02' E 002°41'2712.4
2015-Mar-22 11:24N 52°21' E 003°12'1414.7
2015-Mar-22 10:29N 52°28' E 003°31'1314.3
2015-Mar-22 09:33N 52°31' E 003°53'1413.7
2015-Mar-22 08:33N 52°31' E 004°15'1212.3
2015-Mar-22 07:34N 52°28' E 004°35'3 3.0
2015-Mar-22 06:33N 52°28' E 004°39'4 4.1
2015-Mar-22 05:33N 52°25' E 004°45'1 0.5
2015-Mar-22 04:33N 52°25' E 004°45'0 0.0
2015-Mar-22 03:32N 52°25' E 004°45'0 0.0
2015-Mar-22 02:32N 52°25' E 004°45'0 0.0
2015-Mar-22 01:31N 52°25' E 004°45'0 0.0
2015-Mar-22 00:25N 52°25' E 004°45'0 0.0
2015-Mar-21 23:30N 52°25' E 004°45'0 0.0
2015-Mar-21 22:33N 52°25' E 004°45'0 0.0
2015-Mar-21 21:30N 52°25' E 004°45'0 0.0
2015-Mar-21 20:32N 52°25' E 004°45'0 0.0
2015-Mar-21 19:32N 52°25' E 004°45'0 0.0
2015-Mar-21 18:31N 52°25' E 004°45'0 0.0
2015-Mar-21 17:31N 52°25' E 004°45'0 0.0
2015-Mar-21 16:30N 52°25' E 004°45'0 0.0
2015-Mar-21 15:30N 52°25' E 004°45'0 0.0
2015-Mar-21 14:29N 52°25' E 004°45'0 0.0
2015-Mar-21 13:32N 52°25' E 004°45'0 0.0
2015-Mar-21 12:32N 52°25' E 004°45'0 0.0
2015-Mar-21 11:25N 52°25' E 004°45'0 0.0
2015-Mar-21 10:25N 52°25' E 004°45'0 0.0
2015-Mar-21 09:33N 52°25' E 004°45'0 0.0
2015-Mar-21 08:33N 52°25' E 004°45'0 0.0
2015-Mar-21 07:27N 52°25' E 004°45'0 0.0
2015-Mar-21 06:32N 52°25' E 004°45'0 0.0
2015-Mar-21 05:32N 52°25' E 004°45'0 0.0
2015-Mar-21 04:31N 52°25' E 004°45'0 0.0
2015-Mar-21 03:25N 52°25' E 004°45'0 0.0
2015-Mar-21 02:33N 52°25' E 004°45'0 0.0
2015-Mar-21 01:33N 52°25' E 004°45'0 0.0
2015-Mar-21 00:32N 52°25' E 004°45'0 0.0
2015-Mar-20 23:29N 52°25' E 004°45'0 0.0
2015-Mar-20 22:32N 52°25' E 004°45'0 0.0
2015-Mar-20 21:31N 52°25' E 004°45'0 0.0
2015-Mar-20 20:31N 52°25' E 004°45'0 0.0
2015-Mar-20 19:18N 52°25' E 004°45'0 0.0
2015-Mar-20 18:33N 52°25' E 004°45'0 0.0
2015-Mar-20 17:32N 52°25' E 004°45'0 0.0
2015-Mar-20 16:26N 52°25' E 004°45'0 0.0
2015-Mar-20 15:32N 52°25' E 004°45'0 0.0
2015-Mar-20 14:31N 52°25' E 004°45'0 0.0
2015-Mar-20 13:28N 52°25' E 004°45'0 0.0
2015-Mar-20 12:33N 52°25' E 004°45'0 0.0
2015-Mar-20 11:15N 52°25' E 004°45'0 0.0
2015-Mar-20 10:29N 52°25' E 004°45'0 0.0
2015-Mar-20 09:32N 52°25' E 004°45'0 0.0
2015-Mar-20 08:25N 52°25' E 004°45'0 0.0
2015-Mar-20 07:25N 52°25' E 004°45'0 0.0
2015-Mar-20 06:31N 52°25' E 004°45'0 0.0
2015-Mar-20 05:30N 52°25' E 004°45'0 0.0
2015-Mar-20 04:30N 52°25' E 004°45'0 0.0
2015-Mar-20 03:29N 52°25' E 004°45'0 0.0
2015-Mar-20 02:33N 52°25' E 004°45'0 0.0
2015-Mar-20 01:31N 52°25' E 004°45'0 0.0
2015-Mar-20 00:19N 52°25' E 004°45'0 0.0
2015-Mar-19 23:31N 52°25' E 004°45'0 0.0
2015-Mar-19 22:33N 52°25' E 004°45'0 0.0
2015-Mar-19 21:33N 52°25' E 004°45'0 0.0
2015-Mar-19 20:29N 52°25' E 004°45'0 0.0
2015-Mar-19 19:33N 52°25' E 004°45'1 1.1
2015-Mar-19 18:33N 52°26' E 004°44'5 5.1
2015-Mar-19 17:34N 52°28' E 004°37'2 1.8
2015-Mar-19 16:33N 52°28' E 004°34'6 6.1
2015-Mar-19 15:33N 52°29' E 004°24'6 5.7
2015-Mar-19 14:33N 52°29' E 004°15'8 8.4
2015-Mar-19 13:33N 52°27' E 004°01'0 0.0
2015-Mar-19 12:25N 52°26' E 004°01'0 0.1
2015-Mar-19 11:28N 52°26' E 004°01'0 0.0
2015-Mar-19 10:28N 52°26' E 004°01'0 0.0
2015-Mar-19 09:27N 52°26' E 004°01'0 0.0
2015-Mar-19 08:33N 52°26' E 004°01'0 0.0
2015-Mar-19 07:29N 52°26' E 004°01'0 0.0
2015-Mar-19 06:29N 52°26' E 004°01'0 0.0
2015-Mar-19 05:31N 52°26' E 004°01'0 0.2
2015-Mar-19 04:28N 52°27' E 004°01'0 0.1
2015-Mar-19 03:31N 52°27' E 004°01'0 0.0
2015-Mar-19 02:33N 52°27' E 004°01'0 0.0
2015-Mar-19 01:33N 52°27' E 004°01'0 0.1
2015-Mar-19 00:32N 52°27' E 004°01'0 0.2
2015-Mar-18 23:29N 52°26' E 004°01'0 0.1
2015-Mar-18 22:31N 52°26' E 004°01'0 0.0
2015-Mar-18 21:13N 52°26' E 004°01'0 0.0
2015-Mar-18 20:12N 52°26' E 004°01'0 0.0
2015-Mar-18 19:33N 52°26' E 004°01'0 0.0
2015-Mar-18 18:33N 52°26' E 004°01'0 0.0
2015-Mar-18 16:29N 52°26' E 004°01'0 0.3
2015-Mar-18 15:31N 52°27' E 004°01'0 0.0
2015-Mar-18 14:28N 52°27' E 004°01'0 0.0
2015-Mar-18 13:31N 52°27' E 004°01'0 0.0
2015-Mar-18 12:33N 52°27' E 004°01'0 0.3
2015-Mar-18 11:27N 52°26' E 004°01'0 0.0
2015-Mar-18 10:26N 52°26' E 004°01'0 0.0
2015-Mar-18 09:26N 52°26' E 004°01'0 0.0
2015-Mar-18 08:28N 52°26' E 004°01'0 0.0
2015-Mar-18 07:31N 52°26' E 004°01'0 0.0
2015-Mar-18 06:31N 52°26' E 004°01'0 0.0
2015-Mar-18 05:32N 52°26' E 004°01'0 0.1
2015-Mar-18 04:10N 52°26' E 004°01'0 0.3
2015-Mar-18 03:31N 52°27' E 004°01'0 0.1
2015-Mar-18 02:31N 52°27' E 004°01'0 0.0
2015-Mar-18 01:27N 52°27' E 004°01'0 0.0
2015-Mar-18 00:21N 52°27' E 004°01'0 0.0
2015-Mar-17 23:26N 52°27' E 004°01'0 0.2
2015-Mar-17 22:32N 52°26' E 004°01'0 0.1
2015-Mar-17 21:32N 52°26' E 004°01'0 0.0
2015-Mar-17 20:28N 52°26' E 004°01'0 0.0
2015-Mar-17 19:19N 52°26' E 004°01'0 0.0
2015-Mar-17 18:21N 52°26' E 004°01'0 0.0
2015-Mar-17 17:24N 52°26' E 004°01'0 0.1
2015-Mar-17 16:26N 52°26' E 004°01'0 0.2
2015-Mar-17 15:32N 52°27' E 004°01'0 0.1
2015-Mar-17 14:28N 52°27' E 004°01'0 0.0
2015-Mar-17 13:31N 52°27' E 004°01'0 0.0
2015-Mar-17 12:28N 52°27' E 004°01'0 0.0
2015-Mar-17 11:24N 52°27' E 004°01'0 0.2
2015-Mar-17 10:15N 52°27' E 004°01'0 0.2
2015-Mar-17 09:32N 52°26' E 004°01'0 0.0
2015-Mar-17 08:26N 52°26' E 004°01'0 0.0
2015-Mar-17 07:22N 52°26' E 004°01'0 0.0
2015-Mar-17 06:28N 52°26' E 004°01'0 0.0
2015-Mar-17 05:25N 52°26' E 004°01'0 0.1
2015-Mar-17 04:33N 52°26' E 004°01'0 0.1
2015-Mar-17 03:33N 52°27' E 004°01'0 0.1
2015-Mar-17 02:32N 52°27' E 004°01'0 0.0
2015-Mar-17 01:23N 52°27' E 004°01'0 0.0
2015-Mar-17 00:25N 52°27' E 004°01'0 0.0
2015-Mar-16 23:31N 52°27' E 004°01'0 0.0
2015-Mar-16 22:25N 52°27' E 004°01'0 0.2
2015-Mar-16 21:27N 52°27' E 004°01'0 0.1
2015-Mar-16 20:30N 52°26' E 004°01'0 0.0
2015-Mar-16 19:32N 52°26' E 004°01'0 0.0
2015-Mar-16 18:32N 52°26' E 004°01'0 0.0
2015-Mar-16 17:31N 52°26' E 004°01'0 0.0
2015-Mar-16 16:31N 52°26' E 004°01'0 0.1
2015-Mar-16 15:18N 52°26' E 004°01'0 0.2
2015-Mar-16 14:30N 52°27' E 004°01'0 0.1
2015-Mar-16 13:30N 52°27' E 004°01'0 0.0
2015-Mar-16 12:32N 52°27' E 004°01'0 0.0
2015-Mar-16 11:29N 52°27' E 004°01'0 0.0
2015-Mar-16 10:28N 52°27' E 004°01'0 0.1
2015-Mar-16 09:28N 52°27' E 004°01'0 0.2
2015-Mar-16 08:34N 52°27' E 004°01'0 0.1
2015-Mar-16 07:30N 52°26' E 004°01'0 0.1
2015-Mar-16 06:33N 52°26' E 004°01'0 0.0
2015-Mar-16 05:17N 52°26' E 004°01'0 0.0
2015-Mar-16 04:23N 52°26' E 004°01'0 0.1
2015-Mar-16 02:31N 52°27' E 004°01'0 0.1
2015-Mar-16 01:24N 52°27' E 004°01'0 0.0
2015-Mar-16 00:33N 52°27' E 004°01'0 0.0
2015-Mar-15 23:33N 52°27' E 004°01'0 0.0
2015-Mar-15 22:08N 52°27' E 004°01'0 0.0
2015-Mar-15 21:23N 52°27' E 004°01'0 0.2
2015-Mar-15 20:09N 52°27' E 004°01'0 0.1
2015-Mar-15 19:28N 52°26' E 004°01'0 0.1
2015-Mar-15 18:34N 52°26' E 004°01'0 0.0
2015-Mar-15 17:33N 52°26' E 004°01'0 0.0
2015-Mar-15 16:33N 52°26' E 004°01'0 0.0
2015-Mar-15 14:14N 52°26' E 004°01'0 0.3
2015-Mar-15 13:31N 52°27' E 004°01'0 0.0
2015-Mar-15 11:15N 52°27' E 004°01'0 0.1
2015-Mar-15 10:30N 52°27' E 004°01'0 0.0
2015-Mar-15 09:33N 52°27' E 004°01'0 0.1
2015-Mar-15 08:32N 52°27' E 004°01'0 0.2
2015-Mar-15 07:32N 52°26' E 004°01'0 0.1
2015-Mar-15 06:28N 52°26' E 004°01'0 0.0
2015-Mar-15 05:22N 52°26' E 004°01'0 0.0
2015-Mar-15 04:33N 52°26' E 004°01'  

Dump ship's entire track history